createdAt,value
2018-03-04T00:00:30.342Z,0
2018-03-04T00:01:02.363Z,0
2018-03-04T00:01:34.352Z,0
2018-03-04T00:02:06.337Z,0
2018-03-04T00:02:38.364Z,0
2018-03-04T00:03:10.398Z,0
2018-03-04T00:03:42.399Z,0
2018-03-04T00:04:14.435Z,0
2018-03-04T00:04:46.448Z,0
2018-03-04T00:05:18.440Z,0
2018-03-04T00:05:50.524Z,0
2018-03-04T00:06:22.574Z,0
2018-03-04T00:06:54.606Z,0
2018-03-04T00:07:26.629Z,0
2018-03-04T00:07:58.665Z,0
2018-03-04T00:08:30.669Z,0
2018-03-04T00:09:02.704Z,0
2018-03-04T00:09:34.753Z,0
2018-03-04T00:10:06.752Z,0
2018-03-04T00:10:38.781Z,0
2018-03-04T00:11:11.300Z,0
2018-03-04T00:11:43.336Z,0
2018-03-04T00:12:15.376Z,0
2018-03-04T00:12:47.431Z,0
2018-03-04T00:13:19.461Z,0
2018-03-04T00:13:51.516Z,0
2018-03-04T00:14:23.685Z,0
2018-03-04T00:14:55.704Z,0
2018-03-04T00:15:27.708Z,0
2018-03-04T00:15:59.758Z,0
2018-03-04T00:16:31.748Z,0
2018-03-04T00:17:03.729Z,0
2018-03-04T00:17:35.740Z,0
2018-03-04T00:18:07.774Z,0
2018-03-04T00:18:39.783Z,0
2018-03-04T00:19:11.807Z,0
2018-03-04T00:19:43.887Z,0
2018-03-04T00:20:15.937Z,0
2018-03-04T00:20:47.905Z,0
2018-03-04T00:21:19.849Z,0
2018-03-04T00:21:51.858Z,0
2018-03-04T00:22:23.903Z,0
2018-03-04T00:22:55.926Z,0
2018-03-04T00:23:27.958Z,0
2018-03-04T00:24:00.019Z,0
2018-03-04T00:24:32.048Z,0
2018-03-04T00:25:04.048Z,0
2018-03-04T00:25:36.055Z,0
2018-03-04T00:26:08.045Z,0
2018-03-04T00:26:40.066Z,0
2018-03-04T00:27:12.113Z,0
2018-03-04T00:27:44.183Z,0
2018-03-04T00:28:16.206Z,0
2018-03-04T00:28:48.240Z,0
2018-03-04T00:29:20.373Z,0
2018-03-04T00:29:52.375Z,0
2018-03-04T00:30:24.379Z,0
2018-03-04T00:30:56.400Z,0
2018-03-04T00:31:28.522Z,0
2018-03-04T00:32:00.503Z,0
2018-03-04T00:32:32.501Z,0
2018-03-04T00:33:04.564Z,0
2018-03-04T00:33:36.640Z,0
2018-03-04T00:34:08.695Z,0
2018-03-04T00:34:40.700Z,0
2018-03-04T00:35:12.715Z,0
2018-03-04T00:35:44.753Z,0
2018-03-04T00:36:16.799Z,0
2018-03-04T00:36:48.808Z,0
2018-03-04T00:37:20.824Z,0
2018-03-04T00:37:52.863Z,0
2018-03-04T00:38:24.985Z,0
2018-03-04T00:38:56.999Z,0
2018-03-04T00:39:28.990Z,0
2018-03-04T00:40:01.113Z,0
2018-03-04T00:40:33.174Z,0
2018-03-04T00:41:05.178Z,0
2018-03-04T00:41:37.331Z,0
2018-03-04T00:42:09.472Z,0
2018-03-04T00:42:41.506Z,0
2018-03-04T00:43:13.545Z,0
2018-03-04T00:43:45.562Z,0
2018-03-04T00:44:17.562Z,0
2018-03-04T00:44:49.571Z,0
2018-03-04T00:45:21.629Z,0
2018-03-04T00:45:54.209Z,0
2018-03-04T00:46:26.196Z,0
2018-03-04T00:46:58.240Z,0
2018-03-04T00:47:30.276Z,0
2018-03-04T00:48:02.354Z,0
2018-03-04T00:48:34.386Z,0
2018-03-04T00:49:06.399Z,0
2018-03-04T00:49:38.456Z,0
2018-03-04T00:50:10.476Z,0
2018-03-04T00:50:42.447Z,0
2018-03-04T00:51:14.467Z,0
2018-03-04T00:51:46.498Z,0
2018-03-04T00:52:18.499Z,0
2018-03-04T00:52:50.479Z,0
2018-03-04T00:53:22.516Z,0
2018-03-04T00:53:54.549Z,0
2018-03-04T00:54:26.573Z,0
2018-03-04T00:54:58.560Z,0
2018-03-04T00:55:30.585Z,0
2018-03-04T00:56:02.679Z,0
2018-03-04T00:56:34.700Z,0
2018-03-04T00:57:06.704Z,0
2018-03-04T00:57:38.803Z,0
2018-03-04T00:58:10.827Z,0
2018-03-04T00:58:42.866Z,0
2018-03-04T00:59:14.919Z,0
2018-03-04T00:59:46.945Z,0
2018-03-04T01:00:19.062Z,0
2018-03-04T01:00:51.094Z,0
2018-03-04T01:01:23.238Z,0
2018-03-04T01:01:55.257Z,0
2018-03-04T01:02:27.276Z,0
2018-03-04T01:02:59.267Z,0
2018-03-04T01:03:31.326Z,0
2018-03-04T01:04:03.366Z,0
2018-03-04T01:04:35.401Z,0
2018-03-04T01:05:07.424Z,0
2018-03-04T01:05:39.439Z,0
2018-03-04T01:06:11.416Z,0
2018-03-04T01:06:43.430Z,0
2018-03-04T01:07:15.403Z,0
2018-03-04T01:07:47.420Z,0
2018-03-04T01:08:19.415Z,0
2018-03-04T01:08:51.418Z,0
2018-03-04T01:09:23.461Z,0
2018-03-04T01:09:55.461Z,0
2018-03-04T01:10:27.494Z,0
2018-03-04T01:10:59.485Z,0
2018-03-04T01:11:31.563Z,0
2018-03-04T01:12:03.598Z,0
2018-03-04T01:12:35.640Z,0
2018-03-04T01:13:07.658Z,0
2018-03-04T01:13:39.695Z,0
2018-03-04T01:14:11.822Z,0
2018-03-04T01:14:43.797Z,0
2018-03-04T01:15:15.794Z,0
2018-03-04T01:15:47.819Z,0
2018-03-04T01:16:20.597Z,0
2018-03-04T01:16:52.624Z,0
2018-03-04T01:17:24.754Z,0
2018-03-04T01:17:56.768Z,0
2018-03-04T01:18:28.765Z,0
2018-03-04T01:19:00.767Z,0
2018-03-04T01:19:32.791Z,0
2018-03-04T01:20:04.820Z,0
2018-03-04T01:20:36.791Z,0
2018-03-04T01:21:08.832Z,0
2018-03-04T01:21:40.880Z,0
2018-03-04T01:22:12.929Z,0
2018-03-04T01:22:45.955Z,0
2018-03-04T01:23:18.004Z,0
2018-03-04T01:23:50.045Z,0
2018-03-04T01:24:22.105Z,0
2018-03-04T01:24:54.161Z,0
2018-03-04T01:25:26.144Z,0
2018-03-04T01:25:58.311Z,0
2018-03-04T01:26:30.348Z,0
2018-03-04T01:27:02.351Z,0
2018-03-04T01:27:34.368Z,0
2018-03-04T01:28:06.347Z,0
2018-03-04T01:28:38.393Z,0
2018-03-04T01:29:10.422Z,0
2018-03-04T01:29:42.428Z,0
2018-03-04T01:30:14.410Z,0
2018-03-04T01:30:46.407Z,0
2018-03-04T01:31:18.418Z,0
2018-03-04T01:31:50.413Z,0
2018-03-04T01:32:22.466Z,0
2018-03-04T01:32:54.550Z,0
2018-03-04T01:33:26.558Z,0
2018-03-04T01:33:58.599Z,0
2018-03-04T01:34:30.636Z,0
2018-03-04T01:35:02.652Z,0
2018-03-04T01:35:34.634Z,0
2018-03-04T01:36:06.674Z,0
2018-03-04T01:36:38.708Z,0
2018-03-04T01:37:10.742Z,0
2018-03-04T01:37:42.797Z,0
2018-03-04T01:38:14.855Z,0
2018-03-04T01:38:46.836Z,0
2018-03-04T01:39:18.878Z,0
2018-03-04T01:39:50.859Z,0
2018-03-04T01:40:22.899Z,0
2018-03-04T01:40:54.934Z,0
2018-03-04T01:41:26.959Z,0
2018-03-04T01:41:58.998Z,0
2018-03-04T01:42:31.067Z,0
2018-03-04T01:43:03.188Z,0
2018-03-04T01:43:35.192Z,0
2018-03-04T01:44:07.210Z,0
2018-03-04T01:44:39.236Z,0
2018-03-04T01:45:11.252Z,0
2018-03-04T01:45:43.404Z,0
2018-03-04T01:46:15.464Z,0
2018-03-04T01:46:47.460Z,0
2018-03-04T01:47:19.498Z,0
2018-03-04T01:47:51.574Z,0
2018-03-04T01:48:23.599Z,0
2018-03-04T01:48:55.613Z,0
2018-03-04T01:49:27.674Z,0
2018-03-04T01:49:59.764Z,0
2018-03-04T01:50:31.804Z,0
2018-03-04T01:51:03.827Z,0
2018-03-04T01:51:36.021Z,0
2018-03-04T01:52:08.060Z,0
2018-03-04T01:52:40.174Z,0
2018-03-04T01:53:12.234Z,0
2018-03-04T01:53:44.228Z,0
2018-03-04T01:54:16.365Z,0
2018-03-04T01:54:48.322Z,0
2018-03-04T01:55:20.354Z,0
2018-03-04T01:55:52.408Z,0
2018-03-04T01:56:24.405Z,0
2018-03-04T01:56:56.463Z,0
2018-03-04T01:57:28.494Z,0
2018-03-04T01:58:00.473Z,0
2018-03-04T01:58:32.479Z,0
2018-03-04T01:59:04.484Z,0
2018-03-04T01:59:36.559Z,0
2018-03-04T02:00:08.560Z,0
2018-03-04T02:00:40.583Z,0
2018-03-04T02:01:12.633Z,0
2018-03-04T02:01:44.624Z,0
2018-03-04T02:02:16.641Z,0
2018-03-04T02:02:48.675Z,0
2018-03-04T02:03:20.665Z,0
2018-03-04T02:03:52.681Z,0
2018-03-04T02:04:24.729Z,0
2018-03-04T02:04:56.734Z,0
2018-03-04T02:05:28.781Z,0
2018-03-04T02:06:00.803Z,0
2018-03-04T02:06:32.815Z,0
2018-03-04T02:07:04.835Z,0
2018-03-04T02:07:36.879Z,0
2018-03-04T02:08:08.933Z,0
2018-03-04T02:08:40.961Z,0
2018-03-04T02:09:12.974Z,0
2018-03-04T02:09:44.985Z,0
2018-03-04T02:10:17.043Z,0
2018-03-04T02:10:49.139Z,0
2018-03-04T02:11:21.178Z,0
2018-03-04T02:11:53.218Z,0
2018-03-04T02:12:25.249Z,0
2018-03-04T02:12:57.268Z,0
2018-03-04T02:13:29.296Z,0
2018-03-04T02:14:01.364Z,0
2018-03-04T02:14:33.398Z,0
2018-03-04T02:15:05.389Z,0
2018-03-04T02:15:38.236Z,0
2018-03-04T02:16:10.239Z,0
2018-03-04T02:16:42.205Z,0
2018-03-04T02:17:14.243Z,0
2018-03-04T02:17:46.283Z,0
2018-03-04T02:18:18.338Z,0
2018-03-04T02:18:50.456Z,0
2018-03-04T02:19:22.464Z,0
2018-03-04T02:19:54.495Z,0
2018-03-04T02:20:26.535Z,0
2018-03-04T02:20:58.585Z,0
2018-03-04T02:21:30.625Z,0
2018-03-04T02:22:02.687Z,0
2018-03-04T02:22:34.692Z,0
2018-03-04T02:23:06.710Z,0
2018-03-04T02:23:38.767Z,0
2018-03-04T02:24:10.812Z,0
2018-03-04T02:24:42.831Z,0
2018-03-04T02:25:14.819Z,0
2018-03-04T02:25:46.832Z,0
2018-03-04T02:26:18.920Z,0
2018-03-04T02:26:50.900Z,0
2018-03-04T02:27:22.939Z,0
2018-03-04T02:27:54.966Z,0
2018-03-04T02:28:26.995Z,0
2018-03-04T02:28:59.004Z,0
2018-03-04T02:29:31.034Z,0
2018-03-04T02:30:03.304Z,0
2018-03-04T02:30:35.298Z,0
2018-03-04T02:31:07.361Z,0
2018-03-04T02:31:39.367Z,0
2018-03-04T02:32:11.398Z,0
2018-03-04T02:32:43.452Z,0
2018-03-04T02:33:15.479Z,0
2018-03-04T02:33:47.495Z,0
2018-03-04T02:34:19.463Z,0
2018-03-04T02:34:51.499Z,0
2018-03-04T02:35:23.520Z,0
2018-03-04T02:35:55.536Z,0
2018-03-04T02:36:27.589Z,0
2018-03-04T02:36:59.618Z,0
2018-03-04T02:37:31.631Z,0
2018-03-04T02:38:03.670Z,0
2018-03-04T02:38:35.665Z,0
2018-03-04T02:39:07.713Z,0
2018-03-04T02:39:39.771Z,0
2018-03-04T02:40:11.832Z,0
2018-03-04T02:40:43.862Z,0
2018-03-04T02:41:15.965Z,0
2018-03-04T02:41:47.973Z,0
2018-03-04T02:42:19.983Z,0
2018-03-04T02:42:51.987Z,0
2018-03-04T02:43:24.003Z,0
2018-03-04T02:43:56.055Z,0
2018-03-04T02:44:28.073Z,0
2018-03-04T02:45:00.105Z,0
2018-03-04T02:45:32.152Z,0
2018-03-04T02:46:04.175Z,0
2018-03-04T02:46:36.238Z,0
2018-03-04T02:47:08.348Z,0
2018-03-04T02:47:40.360Z,0
2018-03-04T02:48:12.410Z,0
2018-03-04T02:48:44.489Z,0
2018-03-04T02:49:16.542Z,0
2018-03-04T02:49:48.571Z,0
2018-03-04T02:50:20.638Z,0
2018-03-04T02:50:52.722Z,0
2018-03-04T02:51:24.708Z,0
2018-03-04T02:51:56.737Z,0
2018-03-04T02:52:28.767Z,0
2018-03-04T02:53:01.466Z,0
2018-03-04T02:53:33.478Z,0
2018-03-04T02:54:05.511Z,0
2018-03-04T02:54:37.609Z,0
2018-03-04T02:55:09.630Z,0
2018-03-04T02:55:41.657Z,0
2018-03-04T02:56:13.707Z,0
2018-03-04T02:56:45.733Z,0
2018-03-04T02:57:17.722Z,0
2018-03-04T02:57:49.756Z,0
2018-03-04T02:58:21.770Z,0
2018-03-04T02:58:53.766Z,0
2018-03-04T02:59:25.945Z,0
2018-03-04T02:59:57.953Z,0
2018-03-04T03:00:29.970Z,0
2018-03-04T03:01:01.997Z,0
2018-03-04T03:01:34.082Z,0
2018-03-04T03:02:06.127Z,0
2018-03-04T03:02:38.139Z,0
2018-03-04T03:03:10.193Z,0
2018-03-04T03:03:42.289Z,0
2018-03-04T03:04:14.286Z,0
2018-03-04T03:04:46.339Z,0
2018-03-04T03:05:18.377Z,0
2018-03-04T03:05:50.371Z,0
2018-03-04T03:06:22.404Z,0
2018-03-04T03:06:54.437Z,0
2018-03-04T03:07:27.029Z,0
2018-03-04T03:07:59.051Z,0
2018-03-04T03:08:31.116Z,0
2018-03-04T03:09:03.118Z,0
2018-03-04T03:09:35.134Z,0
2018-03-04T03:10:07.151Z,0
2018-03-04T03:10:39.231Z,0
2018-03-04T03:11:11.251Z,0
2018-03-04T03:11:43.255Z,0
2018-03-04T03:12:15.266Z,0
2018-03-04T03:12:47.316Z,0
2018-03-04T03:13:19.352Z,0
2018-03-04T03:13:51.339Z,0
2018-03-04T03:14:23.367Z,0
2018-03-04T03:14:55.495Z,0
2018-03-04T03:15:27.544Z,0
2018-03-04T03:15:59.535Z,0
2018-03-04T03:16:31.550Z,0
2018-03-04T03:17:03.634Z,0
2018-03-04T03:17:36.131Z,0
2018-03-04T03:18:08.117Z,0
2018-03-04T03:18:40.159Z,0
2018-03-04T03:19:12.164Z,0
2018-03-04T03:19:44.207Z,0
2018-03-04T03:20:16.252Z,0
2018-03-04T03:20:48.231Z,0
2018-03-04T03:21:20.249Z,0
2018-03-04T03:21:52.280Z,0
2018-03-04T03:22:24.364Z,0
2018-03-04T03:22:56.402Z,0
2018-03-04T03:23:28.412Z,0
2018-03-04T03:24:00.434Z,0
2018-03-04T03:24:32.430Z,0
2018-03-04T03:25:04.427Z,0
2018-03-04T03:25:36.476Z,0
2018-03-04T03:26:08.519Z,0
2018-03-04T03:26:40.548Z,0
2018-03-04T03:27:12.583Z,0
2018-03-04T03:27:44.634Z,0
2018-03-04T03:28:16.649Z,0
2018-03-04T03:28:48.643Z,0
2018-03-04T03:29:21.428Z,0
2018-03-04T03:29:53.388Z,0
2018-03-04T03:30:25.456Z,0
2018-03-04T03:30:57.474Z,0
2018-03-04T03:31:29.497Z,0
2018-03-04T03:32:01.491Z,0
2018-03-04T03:32:33.628Z,0
2018-03-04T03:33:05.626Z,0
2018-03-04T03:33:37.615Z,0
2018-03-04T03:34:09.595Z,0
2018-03-04T03:34:41.597Z,0
2018-03-04T03:35:13.600Z,0
2018-03-04T03:35:45.624Z,0
2018-03-04T03:36:17.678Z,0
2018-03-04T03:36:49.731Z,0
2018-03-04T03:37:21.757Z,0
2018-03-04T03:37:53.783Z,0
2018-03-04T03:38:25.817Z,0
2018-03-04T03:38:57.858Z,0
2018-03-04T03:39:29.890Z,0
2018-03-04T03:40:01.927Z,0
2018-03-04T03:40:33.966Z,0
2018-03-04T03:41:05.983Z,0
2018-03-04T03:41:37.990Z,0
2018-03-04T03:42:10.048Z,0
2018-03-04T03:42:42.089Z,0
2018-03-04T03:43:14.119Z,0
2018-03-04T03:43:46.147Z,0
2018-03-04T03:44:18.195Z,0
2018-03-04T03:44:50.240Z,0
2018-03-04T03:45:22.272Z,0
2018-03-04T03:45:54.316Z,0
2018-03-04T03:46:27.055Z,0
2018-03-04T03:46:59.071Z,0
2018-03-04T03:47:31.149Z,0
2018-03-04T03:48:03.144Z,0
2018-03-04T03:48:35.200Z,0
2018-03-04T03:49:07.228Z,0
2018-03-04T03:49:39.239Z,0
2018-03-04T03:50:11.311Z,0
2018-03-04T03:50:43.310Z,0
2018-03-04T03:51:15.357Z,0
2018-03-04T03:51:47.417Z,0
2018-03-04T03:52:19.486Z,0
2018-03-04T03:52:51.533Z,0
2018-03-04T03:53:23.510Z,0
2018-03-04T03:53:55.584Z,0
2018-03-04T03:54:27.775Z,0
2018-03-04T03:54:59.919Z,0
2018-03-04T03:55:31.927Z,0
2018-03-04T03:56:03.954Z,0
2018-03-04T03:56:35.985Z,0
2018-03-04T03:57:08.188Z,0
2018-03-04T03:57:40.324Z,0
2018-03-04T03:58:12.485Z,0
2018-03-04T03:58:44.555Z,0
2018-03-04T03:59:16.602Z,0
2018-03-04T03:59:48.627Z,0
2018-03-04T04:00:20.722Z,0
2018-03-04T04:00:52.747Z,0
2018-03-04T04:01:24.775Z,0
2018-03-04T04:01:56.781Z,0
2018-03-04T04:02:28.829Z,0
2018-03-04T04:03:00.860Z,0
2018-03-04T04:03:32.841Z,0
2018-03-04T04:04:04.897Z,0
2018-03-04T04:04:36.902Z,0
2018-03-04T04:05:08.969Z,0
2018-03-04T04:05:41.033Z,0
2018-03-04T04:06:13.078Z,0
2018-03-04T04:06:45.089Z,0
2018-03-04T04:07:17.120Z,0
2018-03-04T04:07:49.147Z,0
2018-03-04T04:08:21.194Z,0
2018-03-04T04:08:53.216Z,0
2018-03-04T04:09:25.219Z,0
2018-03-04T04:09:57.212Z,0
2018-03-04T04:10:29.265Z,0
2018-03-04T04:11:01.289Z,0
2018-03-04T04:11:33.366Z,0
2018-03-04T04:12:05.380Z,0
2018-03-04T04:12:37.393Z,0
2018-03-04T04:13:09.461Z,0
2018-03-04T04:13:41.545Z,0
2018-03-04T04:14:13.610Z,0
2018-03-04T04:14:45.617Z,0
2018-03-04T04:15:17.649Z,0
2018-03-04T04:15:49.658Z,0
2018-03-04T04:16:21.666Z,0
2018-03-04T04:16:53.710Z,0
2018-03-04T04:17:25.757Z,0
2018-03-04T04:17:57.804Z,0
2018-03-04T04:18:29.844Z,0
2018-03-04T04:19:01.903Z,0
2018-03-04T04:19:33.877Z,0
2018-03-04T04:20:05.880Z,0
2018-03-04T04:20:37.928Z,0
2018-03-04T04:21:09.977Z,0
2018-03-04T04:21:42.000Z,0
2018-03-04T04:22:14.039Z,0
2018-03-04T04:22:46.081Z,0
2018-03-04T04:23:18.100Z,0
2018-03-04T04:23:50.662Z,0
2018-03-04T04:24:22.696Z,0
2018-03-04T04:24:54.716Z,0
2018-03-04T04:25:26.726Z,0
2018-03-04T04:25:58.735Z,0
2018-03-04T04:26:30.826Z,0
2018-03-04T04:27:02.853Z,0
2018-03-04T04:27:34.881Z,0
2018-03-04T04:28:06.951Z,0
2018-03-04T04:28:38.956Z,0
2018-03-04T04:29:11.036Z,0
2018-03-04T04:29:43.032Z,0
2018-03-04T04:30:15.244Z,0
2018-03-04T04:30:47.238Z,0
2018-03-04T04:31:19.373Z,0
2018-03-04T04:31:51.532Z,0
2018-03-04T04:32:23.529Z,0
2018-03-04T04:32:55.547Z,0
2018-03-04T04:33:27.581Z,0
2018-03-04T04:33:59.643Z,0
2018-03-04T04:34:31.664Z,0
2018-03-04T04:35:03.715Z,0
2018-03-04T04:35:35.889Z,0
2018-03-04T04:36:07.921Z,0
2018-03-04T04:36:39.959Z,0
2018-03-04T04:37:11.970Z,0
2018-03-04T04:37:44.008Z,0
2018-03-04T04:38:16.025Z,0
2018-03-04T04:38:48.034Z,0
2018-03-04T04:39:20.041Z,0
2018-03-04T04:39:52.060Z,0
2018-03-04T04:40:24.088Z,0
2018-03-04T04:40:56.082Z,0
2018-03-04T04:41:28.108Z,0
2018-03-04T04:42:00.137Z,0
2018-03-04T04:42:32.176Z,0
2018-03-04T04:43:04.235Z,0
2018-03-04T04:43:36.273Z,0
2018-03-04T04:44:08.281Z,0
2018-03-04T04:44:40.365Z,0
2018-03-04T04:45:12.403Z,0
2018-03-04T04:45:44.403Z,0
2018-03-04T04:46:16.430Z,0
2018-03-04T04:46:48.463Z,0
2018-03-04T04:47:20.464Z,0
2018-03-04T04:47:52.530Z,0
2018-03-04T04:48:24.541Z,0
2018-03-04T04:48:56.556Z,0
2018-03-04T04:49:28.575Z,0
2018-03-04T04:50:00.598Z,0
2018-03-04T04:50:32.639Z,0
2018-03-04T04:51:04.666Z,0
2018-03-04T04:51:37.525Z,0
2018-03-04T04:52:09.558Z,0
2018-03-04T04:52:41.593Z,0
2018-03-04T04:53:13.622Z,0
2018-03-04T04:53:45.679Z,0
2018-03-04T04:54:17.662Z,0
2018-03-04T04:54:49.695Z,0
2018-03-04T04:55:21.859Z,0
2018-03-04T04:55:53.884Z,0
2018-03-04T04:56:25.936Z,0
2018-03-04T04:56:57.964Z,0
2018-03-04T04:57:30.008Z,0
2018-03-04T04:58:02.161Z,0
2018-03-04T04:58:34.177Z,0
2018-03-04T04:59:06.229Z,0
2018-03-04T04:59:38.248Z,0
2018-03-04T05:00:10.356Z,0
2018-03-04T05:00:42.404Z,0
2018-03-04T05:01:14.431Z,0
2018-03-04T05:01:46.434Z,0
2018-03-04T05:02:18.551Z,0
2018-03-04T05:02:50.758Z,0
2018-03-04T05:03:22.811Z,0
2018-03-04T05:03:54.843Z,0
2018-03-04T05:04:26.879Z,0
2018-03-04T05:04:58.916Z,0
2018-03-04T05:05:30.948Z,0
2018-03-04T05:06:03.127Z,0
2018-03-04T05:06:35.166Z,0
2018-03-04T05:07:07.176Z,0
2018-03-04T05:07:39.218Z,0
2018-03-04T05:08:11.296Z,0
2018-03-04T05:08:43.340Z,0
2018-03-04T05:09:15.378Z,0
2018-03-04T05:09:47.396Z,0
2018-03-04T05:10:19.438Z,0
2018-03-04T05:10:51.453Z,0
2018-03-04T05:11:23.476Z,0
2018-03-04T05:11:55.482Z,0
2018-03-04T05:12:27.470Z,0
2018-03-04T05:12:59.506Z,0
2018-03-04T05:13:32.430Z,0
2018-03-04T05:14:04.436Z,0
2018-03-04T05:14:36.468Z,0
2018-03-04T05:15:08.551Z,0
2018-03-04T05:15:40.567Z,0
2018-03-04T05:16:12.574Z,0
2018-03-04T05:16:44.612Z,0
2018-03-04T05:17:16.636Z,0
2018-03-04T05:17:48.618Z,0
2018-03-04T05:18:20.642Z,0
2018-03-04T05:18:52.643Z,0
2018-03-04T05:19:24.663Z,0
2018-03-04T05:19:56.709Z,0
2018-03-04T05:20:28.743Z,0
2018-03-04T05:21:00.761Z,0
2018-03-04T05:21:32.809Z,0
2018-03-04T05:22:04.832Z,0
2018-03-04T05:22:36.853Z,0
2018-03-04T05:23:09.022Z,0
2018-03-04T05:23:41.046Z,0
2018-03-04T05:24:13.040Z,0
2018-03-04T05:24:45.104Z,0
2018-03-04T05:25:17.077Z,0
2018-03-04T05:25:49.101Z,0
2018-03-04T05:26:21.101Z,0
2018-03-04T05:26:53.170Z,0
2018-03-04T05:27:25.165Z,0
2018-03-04T05:27:57.199Z,0
2018-03-04T05:28:29.214Z,0
2018-03-04T05:29:01.251Z,0
2018-03-04T05:29:33.342Z,0
2018-03-04T05:30:05.366Z,0
2018-03-04T05:30:37.338Z,0
2018-03-04T05:31:09.437Z,0
2018-03-04T05:31:41.457Z,0
2018-03-04T05:32:13.490Z,0
2018-03-04T05:32:45.518Z,0
2018-03-04T05:33:17.575Z,0
2018-03-04T05:33:49.584Z,0
2018-03-04T05:34:21.625Z,0
2018-03-04T05:34:53.681Z,0
2018-03-04T05:35:25.748Z,0
2018-03-04T05:35:57.796Z,0
2018-03-04T05:36:29.812Z,0
2018-03-04T05:37:01.855Z,0
2018-03-04T05:37:33.887Z,0
2018-03-04T05:38:05.944Z,0
2018-03-04T05:38:37.993Z,0
2018-03-04T05:39:10.056Z,0
2018-03-04T05:39:42.107Z,0
2018-03-04T05:40:14.130Z,0
2018-03-04T05:40:46.188Z,0
2018-03-04T05:41:18.228Z,0
2018-03-04T05:41:50.227Z,0
2018-03-04T05:42:22.226Z,0
2018-03-04T05:42:54.250Z,0
2018-03-04T05:43:26.286Z,0
2018-03-04T05:43:58.367Z,0
2018-03-04T05:44:30.377Z,0
2018-03-04T05:45:02.416Z,0
2018-03-04T05:45:34.425Z,4
2018-03-04T05:46:06.455Z,4
2018-03-04T05:46:38.488Z,4
2018-03-04T05:47:10.490Z,4
2018-03-04T05:47:42.531Z,4
2018-03-04T05:48:14.532Z,0
2018-03-04T05:48:46.573Z,0
2018-03-04T05:49:18.614Z,4
2018-03-04T05:49:50.671Z,4
2018-03-04T05:50:22.707Z,4
2018-03-04T05:50:54.726Z,4
2018-03-04T05:51:26.731Z,4
2018-03-04T05:51:58.734Z,8
2018-03-04T05:52:30.753Z,4
2018-03-04T05:53:02.758Z,4
2018-03-04T05:53:34.729Z,4
2018-03-04T05:54:06.755Z,8
2018-03-04T05:54:38.749Z,8
2018-03-04T05:55:10.842Z,8
2018-03-04T05:55:42.858Z,8
2018-03-04T05:56:14.868Z,8
2018-03-04T05:56:46.962Z,8
2018-03-04T05:57:19.892Z,8
2018-03-04T05:57:51.959Z,12
2018-03-04T05:58:24.061Z,8
2018-03-04T05:58:56.071Z,12
2018-03-04T05:59:28.063Z,12
2018-03-04T06:00:00.058Z,16
2018-03-04T06:00:32.033Z,12
2018-03-04T06:01:04.136Z,16
2018-03-04T06:01:36.112Z,16
2018-03-04T06:02:08.144Z,16
2018-03-04T06:02:40.176Z,16
2018-03-04T06:03:12.215Z,20
2018-03-04T06:03:44.233Z,16
2018-03-04T06:04:16.277Z,20
2018-03-04T06:04:48.271Z,20
2018-03-04T06:05:20.293Z,20
2018-03-04T06:05:52.339Z,24
2018-03-04T06:06:24.374Z,20
2018-03-04T06:06:56.403Z,24
2018-03-04T06:07:28.653Z,24
2018-03-04T06:08:01.499Z,24
2018-03-04T06:08:33.508Z,24
2018-03-04T06:09:05.524Z,28
2018-03-04T06:09:37.537Z,28
2018-03-04T06:10:09.615Z,28
2018-03-04T06:10:41.584Z,32
2018-03-04T06:11:13.551Z,32
2018-03-04T06:11:45.596Z,36
2018-03-04T06:12:17.729Z,36
2018-03-04T06:12:49.719Z,40
2018-03-04T06:13:21.769Z,40
2018-03-04T06:13:53.933Z,40
2018-03-04T06:14:25.949Z,44
2018-03-04T06:14:57.969Z,44
2018-03-04T06:15:30.004Z,48
2018-03-04T06:16:02.589Z,48
2018-03-04T06:16:34.645Z,52
2018-03-04T06:17:06.664Z,52
2018-03-04T06:17:38.683Z,56
2018-03-04T06:18:10.669Z,60
2018-03-04T06:18:42.690Z,60
2018-03-04T06:19:14.730Z,64
2018-03-04T06:19:46.727Z,64
2018-03-04T06:20:18.746Z,68
2018-03-04T06:20:50.795Z,72
2018-03-04T06:21:22.782Z,72
2018-03-04T06:21:54.827Z,76
2018-03-04T06:22:26.955Z,80
2018-03-04T06:22:58.998Z,80
2018-03-04T06:23:31.063Z,80
2018-03-04T06:24:03.072Z,84
2018-03-04T06:24:35.111Z,84
2018-03-04T06:25:07.141Z,84
2018-03-04T06:25:39.146Z,88
2018-03-04T06:26:11.321Z,88
2018-03-04T06:26:43.395Z,88
2018-03-04T06:27:15.414Z,88
2018-03-04T06:27:47.418Z,92
2018-03-04T06:28:19.431Z,96
2018-03-04T06:28:51.475Z,96
2018-03-04T06:29:23.499Z,100
2018-03-04T06:29:55.554Z,104
2018-03-04T06:30:27.531Z,112
2018-03-04T06:30:59.607Z,112
2018-03-04T06:31:32.287Z,116
2018-03-04T06:32:04.360Z,124
2018-03-04T06:32:36.427Z,124
2018-03-04T06:33:08.549Z,132
2018-03-04T06:33:40.579Z,136
2018-03-04T06:34:12.638Z,140
2018-03-04T06:34:44.691Z,148
2018-03-04T06:35:16.732Z,152
2018-03-04T06:35:48.757Z,156
2018-03-04T06:36:20.819Z,160
2018-03-04T06:36:52.829Z,160
2018-03-04T06:37:24.836Z,164
2018-03-04T06:37:56.841Z,164
2018-03-04T06:38:28.882Z,168
2018-03-04T06:39:00.950Z,168
2018-03-04T06:39:32.960Z,172
2018-03-04T06:40:04.965Z,172
2018-03-04T06:40:36.964Z,176
2018-03-04T06:41:09.010Z,176
2018-03-04T06:41:41.055Z,180
2018-03-04T06:42:13.100Z,176
2018-03-04T06:42:45.189Z,176
2018-03-04T06:43:17.367Z,180
2018-03-04T06:43:49.377Z,180
2018-03-04T06:44:21.380Z,180
2018-03-04T06:44:53.456Z,184
2018-03-04T06:45:25.484Z,188
2018-03-04T06:45:57.552Z,192
2018-03-04T06:46:29.571Z,192
2018-03-04T06:47:01.632Z,196
2018-03-04T06:47:33.666Z,196
2018-03-04T06:48:05.703Z,200
2018-03-04T06:48:37.738Z,200
2018-03-04T06:49:09.736Z,200
2018-03-04T06:49:41.766Z,204
2018-03-04T06:50:13.846Z,204
2018-03-04T06:50:45.889Z,208
2018-03-04T06:51:17.906Z,204
2018-03-04T06:51:50.796Z,208
2018-03-04T06:52:22.810Z,208
2018-03-04T06:52:54.829Z,208
2018-03-04T06:53:26.863Z,212
2018-03-04T06:53:58.880Z,216
2018-03-04T06:54:30.873Z,220
2018-03-04T06:55:02.903Z,224
2018-03-04T06:55:34.945Z,228
2018-03-04T06:56:06.958Z,232
2018-03-04T06:56:39.036Z,240
2018-03-04T06:57:11.078Z,252
2018-03-04T06:57:43.116Z,260
2018-03-04T06:58:15.128Z,272
2018-03-04T06:58:47.149Z,284
2018-03-04T06:59:19.207Z,296
2018-03-04T06:59:51.228Z,308
2018-03-04T07:00:23.277Z,316
2018-03-04T07:00:55.274Z,324
2018-03-04T07:01:27.283Z,332
2018-03-04T07:01:59.289Z,336
2018-03-04T07:02:31.326Z,340
2018-03-04T07:03:03.330Z,344
2018-03-04T07:03:35.380Z,348
2018-03-04T07:04:07.450Z,356
2018-03-04T07:04:39.451Z,360
2018-03-04T07:05:11.610Z,364
2018-03-04T07:05:43.688Z,368
2018-03-04T07:06:15.699Z,376
2018-03-04T07:06:47.740Z,380
2018-03-04T07:07:19.789Z,388
2018-03-04T07:07:51.848Z,396
2018-03-04T07:08:23.896Z,404
2018-03-04T07:08:55.915Z,408
2018-03-04T07:09:27.964Z,416
2018-03-04T07:10:00.150Z,420
2018-03-04T07:10:32.230Z,420
2018-03-04T07:11:04.234Z,420
2018-03-04T07:11:36.313Z,424
2018-03-04T07:12:08.377Z,424
2018-03-04T07:12:40.373Z,424
2018-03-04T07:13:12.359Z,424
2018-03-04T07:13:44.436Z,424
2018-03-04T07:14:16.443Z,428
2018-03-04T07:14:48.495Z,428
2018-03-04T07:15:20.551Z,440
2018-03-04T07:15:52.596Z,448
2018-03-04T07:16:24.571Z,460
2018-03-04T07:16:56.615Z,472
2018-03-04T07:17:28.698Z,484
2018-03-04T07:18:00.754Z,504
2018-03-04T07:18:32.796Z,516
2018-03-04T07:19:04.905Z,536
2018-03-04T07:19:36.920Z,556
2018-03-04T07:20:08.940Z,572
2018-03-04T07:20:40.959Z,580
2018-03-04T07:21:12.962Z,592
2018-03-04T07:21:44.991Z,596
2018-03-04T07:22:17.054Z,600
2018-03-04T07:22:49.082Z,600
2018-03-04T07:23:21.099Z,600
2018-03-04T07:23:53.097Z,592
2018-03-04T07:24:25.126Z,584
2018-03-04T07:24:57.159Z,572
2018-03-04T07:25:29.180Z,576
2018-03-04T07:26:01.212Z,584
2018-03-04T07:26:33.236Z,596
2018-03-04T07:27:05.270Z,600
2018-03-04T07:27:37.296Z,596
2018-03-04T07:28:09.305Z,592
2018-03-04T07:28:41.316Z,576
2018-03-04T07:29:13.329Z,560
2018-03-04T07:29:45.423Z,540
2018-03-04T07:30:17.485Z,520
2018-03-04T07:30:49.524Z,504
2018-03-04T07:31:21.577Z,492
2018-03-04T07:31:53.596Z,480
2018-03-04T07:32:25.632Z,468
2018-03-04T07:32:57.646Z,452
2018-03-04T07:33:29.680Z,444
2018-03-04T07:34:01.709Z,436
2018-03-04T07:34:33.717Z,432
2018-03-04T07:35:05.820Z,436
2018-03-04T07:35:37.820Z,440
2018-03-04T07:36:09.897Z,452
2018-03-04T07:36:41.932Z,460
2018-03-04T07:37:13.933Z,472
2018-03-04T07:37:45.944Z,480
2018-03-04T07:38:17.955Z,504
2018-03-04T07:38:49.980Z,524
2018-03-04T07:39:22.068Z,548
2018-03-04T07:39:54.076Z,576
2018-03-04T07:40:26.107Z,604
2018-03-04T07:40:58.115Z,628
2018-03-04T07:41:30.622Z,652
2018-03-04T07:42:02.642Z,680
2018-03-04T07:42:34.644Z,704
2018-03-04T07:43:06.644Z,720
2018-03-04T07:43:38.653Z,744
2018-03-04T07:44:10.648Z,764
2018-03-04T07:44:42.658Z,784
2018-03-04T07:45:14.677Z,804
2018-03-04T07:45:46.782Z,820
2018-03-04T07:46:18.817Z,836
2018-03-04T07:46:50.824Z,848
2018-03-04T07:47:23.544Z,852